Hauptseite
METAR-TAF:

METAR-TAF

Flughäfen :

Flughafen Šiauliai

Šiauliai, Litauen

Breite: 55-53-38N, Länge: 023-23-42E, Höhe: 135 m

Beobachtung

Neuester Wetterbericht von vor 33 Minuten, um 23:20 UTC
Wind 2 kt aus unterschiedlichen Richtungen
Temperatur 15°C
Luftfeuchtigkeit 88%
Luftdruck 1012 hPa
Sichtweite 10 km oder mehr

METAR: EYSA 162320Z AUTO VRB02KT 9999NDV NSC 15/13 Q1012

Zeit: 02:53 (23:53 UTC)

Prognose

Neuester Wetterbericht von vor 53 Minuten, um 23:00 UTC
Gültige Prognose vom 17 um 00 UTC bis 17 um 09 UTC
Wind 3 kt aus unterschiedlichen Richtungen
Sichtweite: 9000 m
Zeitweise
vom 17 um 00 UTC bis 17 um 05 UTC
Sichtweite: 5000 m
Aufgelockert bewölkt in der Höhe von 300 ft
Flacher Nebel, feuchter Dunst,

TAF: EYSA 162300Z 1700/1709 VRB03KT 9000 NSC TEMPO 1700/1705 5000 MIFG BR SCT003

Wetterbeobachtungen und Prognosen von mehr als 4000 Flughäfen (METAR und TAF Bericht).

Die verfügbaren Stationen werden durch gelbe und rote Markierungen auf der Karte dargestellt.

Führen Sie die Maus auf sie, um den Namen der Station zu sehen.

Darauf klicken, um die Beobachtung von Wetterbeobachtungen und Prognosen zu sehen.

Um die Karte zu ändern : klicken Sie auf den grünen Tasten mit einem schwarzen Kreuz Zum Vergrößern, auf den grünen Button mit einem Gedankenstrich zu verkleinern, oder auf die grünen Pfeile für benachbarte Karten.


METAR-TAF: